Terminal Aerodrome Forecast
Issued by NWS

Home | Current Version | Previous Version | Text Only | Print | Product List | Glossary On
Versions: 1 2 3 4 5 6 7 8 9 10 11 12 13 14
205
FTUS45 KABQ 310521
TAFSAF
TAF
KSAF 310521Z 3106/0106 26006KT P6SM BKN150
     FM310800 13008KT P6SM SCT150
     FM311000 02009KT P6SM SCT120
     FM312000 15011KT P6SM VCSH BKN100
     FM010000 14013G23KT P6SM VCSH BKN080=

USA.gov is the U.S. government's official web portal to all federal, state and local government web resources and services.